Time;durP1;ratioP1;P1;durP2;ratioP2;P2;SDS_P1;SDS_P2;PMS_P1;PMS_P2;Temp;Humidity;BMP_temperature;BMP_pressure;BME280_temperature;BME280_humidity;BME280_pressure;Samples;Min_cycle;Max_cycle;Signal;HPM_P1;HPM_P2
2021/01/25 00:01:09;;;;;;;11.10;5.17;;;2.80;92.80;;;;;;5006915;28;20647;-76
2021/01/25 00:03:35;;;;;;;11.07;5.23;;;2.80;92.60;;;;;;4990427;28;20048;-76
2021/01/25 00:06:00;;;;;;;10.50;4.70;;;2.80;92.70;;;;;;5004892;28;20125;-76
2021/01/25 00:08:26;;;;;;;10.57;4.90;;;2.80;92.80;;;;;;4992409;28;20111;-76
2021/01/25 00:10:53;;;;;;;11.40;5.77;;;2.80;92.70;;;;;;5006880;28;20129;-76
2021/01/25 00:13:19;;;;;;;11.37;5.37;;;2.80;92.80;;;;;;5005094;28;20474;-76
2021/01/25 00:15:49;;;;;;;12.67;5.87;;;2.90;92.80;;;;;;5007768;28;20129;-75
2021/01/25 00:18:15;;;;;;;13.43;6.20;;;2.90;92.70;;;;;;4996120;28;20080;-75
2021/01/25 00:20:41;;;;;;;13.17;7.30;;;2.90;92.80;;;;;;5007182;28;20053;-76
2021/01/25 00:23:06;;;;;;;13.30;6.97;;;2.90;92.60;;;;;;4989919;28;20097;-76
2021/01/25 00:25:32;;;;;;;14.60;7.77;;;2.90;92.60;;;;;;4990780;28;20097;-75
2021/01/25 00:27:58;;;;;;;14.57;8.20;;;2.80;92.80;;;;;;4994637;28;20089;-74
2021/01/25 00:30:24;;;;;;;15.70;9.30;;;2.90;92.90;;;;;;4993918;28;20495;-77
2021/01/25 00:32:50;;;;;;;16.40;9.47;;;2.90;92.70;;;;;;4971647;28;20054;-76
2021/01/25 00:35:16;;;;;;;14.67;8.90;;;2.90;92.60;;;;;;5009808;28;20030;-77
2021/01/25 00:37:42;;;;;;;16.30;9.43;;;2.80;92.50;;;;;;5013822;28;20034;-76
2021/01/25 00:40:08;;;;;;;17.77;9.50;;;2.80;92.50;;;;;;5013808;28;20128;-74
2021/01/25 00:42:34;;;;;;;16.70;9.47;;;2.80;92.60;;;;;;4982598;28;20030;-74
2021/01/25 00:45:00;;;;;;;14.53;9.17;;;2.70;92.80;;;;;;4992988;28;20388;-75
2021/01/25 00:47:26;;;;;;;17.27;9.37;;;2.80;92.90;;;;;;4994445;28;20177;-76
2021/01/25 00:49:52;;;;;;;17.30;8.93;;;2.70;92.80;;;;;;4993674;28;20419;-75
2021/01/25 00:52:18;;;;;;;14.50;8.27;;;2.80;92.80;;;;;;5010303;28;20034;-77
2021/01/25 00:54:44;;;;;;;15.07;8.47;;;2.80;92.80;;;;;;4995790;28;20065;-75
2021/01/25 00:57:10;;;;;;;15.37;8.93;;;2.80;92.70;;;;;;5013375;28;20037;-74
2021/01/25 00:59:36;;;;;;;15.20;9.17;;;2.70;92.60;;;;;;5013943;28;20041;-75
2021/01/25 01:02:01;;;;;;;13.63;8.00;;;2.80;92.60;;;;;;5012064;28;20052;-76
2021/01/25 01:04:27;;;;;;;14.50;8.30;;;2.70;92.70;;;;;;4996049;28;20042;-76
2021/01/25 01:06:53;;;;;;;13.63;8.47;;;2.70;92.70;;;;;;5013765;28;20044;-76
2021/01/25 01:09:18;;;;;;;14.63;8.67;;;2.70;92.80;;;;;;5013267;28;20042;-75
2021/01/25 01:11:44;;;;;;;14.80;8.17;;;2.70;92.80;;;;;;4994771;28;20586;-76
2021/01/25 01:14:10;;;;;;;13.53;7.97;;;2.70;92.70;;;;;;5013085;28;20486;-74
2021/01/25 01:16:35;;;;;;;13.93;8.20;;;2.70;92.70;;;;;;5013628;28;20050;-76
2021/01/25 01:19:04;;;;;;;13.33;7.87;;;2.70;92.80;;;;;;5013415;28;20034;-76
2021/01/25 01:21:29;;;;;;;12.60;7.77;;;2.70;92.70;;;;;;5004502;28;20415;-75
2021/01/25 01:23:55;;;;;;;12.73;8.13;;;2.70;92.80;;;;;;4993858;28;20057;-76
2021/01/25 01:26:21;;;;;;;14.33;8.23;;;2.70;92.70;;;;;;4993684;28;20042;-75
2021/01/25 01:28:46;;;;;;;14.37;8.03;;;2.70;92.60;;;;;;4993378;28;20049;-76
2021/01/25 01:31:12;;;;;;;12.33;7.70;;;2.70;92.80;;;;;;4958909;28;20046;-76
2021/01/25 01:33:38;;;;;;;15.20;7.70;;;2.70;92.70;;;;;;4992810;28;20039;-75
2021/01/25 01:36:04;;;;;;;13.97;8.10;;;2.70;92.60;;;;;;5010724;28;20057;-75
2021/01/25 01:38:30;;;;;;;12.63;7.77;;;2.70;92.70;;;;;;4995209;28;20104;-76
2021/01/25 01:40:59;;;;;;;11.87;7.57;;;2.70;92.80;;;;;;4994373;28;20483;-76
2021/01/25 01:43:28;;;;;;;12.80;7.90;;;2.70;92.60;;;;;;5012957;28;20042;-75
2021/01/25 01:45:54;;;;;;;11.07;7.23;;;2.60;92.60;;;;;;5012429;28;20236;-75
2021/01/25 01:48:21;;;;;;;11.63;7.20;;;2.60;92.80;;;;;;4995674;28;20692;-75
2021/01/25 01:50:47;;;;;;;12.53;7.30;;;2.60;92.70;;;;;;5011703;28;20038;-75
2021/01/25 01:53:13;;;;;;;11.90;7.47;;;2.60;92.70;;;;;;5009039;28;20540;-75
2021/01/25 01:55:38;;;;;;;14.10;7.90;;;2.60;92.60;;;;;;4995378;28;20141;-76
2021/01/25 01:58:04;;;;;;;12.23;7.70;;;2.60;92.60;;;;;;5012267;28;20044;-76
2021/01/25 02:00:30;;;;;;;13.33;7.80;;;2.50;92.70;;;;;;5012183;28;20033;-76
2021/01/25 02:02:56;;;;;;;13.13;7.93;;;2.50;92.70;;;;;;4978616;28;20046;-74
2021/01/25 02:05:22;;;;;;;16.77;7.77;;;2.60;92.80;;;;;;4992868;28;20042;-76
2021/01/25 02:07:53;;;;;;;12.23;7.47;;;2.50;92.70;;;;;;4992938;28;20030;-74
2021/01/25 02:10:21;;;;;;;13.15;7.75;;;2.60;92.70;;;;;;4974238;28;20065;-75
2021/01/25 02:12:49;;;;;;;13.23;7.90;;;2.60;92.80;;;;;;5011411;28;20537;-75
2021/01/25 02:15:17;;;;;;;10.40;6.80;;;2.60;92.80;;;;;;5011395;28;20038;-76
2021/01/25 02:17:43;;;;;;;12.67;6.43;;;2.60;92.60;;;;;;5012432;28;20030;-75
2021/01/25 02:20:22;;;;;;;11.07;6.90;;;2.60;92.60;;;;;;4994520;28;20513;-76
2021/01/25 02:22:57;;;;;;;11.30;7.07;;;2.50;92.50;;;;;;5008160;28;20486;-76
2021/01/25 02:25:42;;;;;;;11.67;6.73;;;2.50;92.60;;;;;;4994505;28;20048;-75
2021/01/25 02:28:08;;;;;;;12.03;7.00;;;2.50;92.60;;;;;;5011959;28;20034;-76
2021/01/25 02:30:34;;;;;;;12.80;7.80;;;2.40;92.70;;;;;;5010366;28;20038;-75
2021/01/25 02:33:01;;;;;;;13.03;7.60;;;2.50;92.70;;;;;;5010750;28;20042;-75
2021/01/25 02:35:28;;;;;;;11.87;7.23;;;2.50;92.70;;;;;;4978425;28;20033;-75
2021/01/25 02:37:55;;;;;;;12.77;7.83;;;2.50;92.80;;;;;;5011911;28;20444;-76
2021/01/25 02:40:23;;;;;;;14.77;8.20;;;2.50;92.70;;;;;;5011136;28;20050;-75
2021/01/25 02:42:52;;;;;;;12.63;8.00;;;2.50;92.60;;;;;;4993377;28;20137;-76
2021/01/25 02:45:19;;;;;;;16.00;8.20;;;2.50;92.60;;;;;;4991799;28;20129;-76
2021/01/25 02:47:46;;;;;;;13.90;8.07;;;2.50;92.70;;;;;;4974873;28;20281;-76
2021/01/25 02:50:12;;;;;;;13.50;8.47;;;2.50;92.70;;;;;;4990817;28;20034;-74
2021/01/25 02:52:38;;;;;;;13.53;8.43;;;2.50;92.80;;;;;;4983627;28;20518;-76
2021/01/25 02:55:04;;;;;;;14.67;8.17;;;2.50;92.80;;;;;;4989902;28;20041;-75
2021/01/25 02:57:32;;;;;;;14.27;8.77;;;2.50;92.70;;;;;;5011250;28;20099;-76
2021/01/25 02:59:59;;;;;;;14.43;8.40;;;2.60;92.70;;;;;;4993926;28;20676;-76
2021/01/25 03:02:25;;;;;;;16.93;8.70;;;2.60;92.70;;;;;;5010194;28;20048;-75
2021/01/25 03:04:51;;;;;;;15.03;8.43;;;2.60;92.70;;;;;;4993863;28;20045;-76
2021/01/25 03:07:17;;;;;;;13.57;8.83;;;2.60;93.00;;;;;;5011453;28;20034;-75
2021/01/25 03:09:43;;;;;;;14.77;8.47;;;2.60;92.80;;;;;;4993463;28;20034;-76
2021/01/25 03:12:08;;;;;;;14.67;8.00;;;2.60;92.80;;;;;;4980624;28;20458;-76
2021/01/25 03:14:41;;;;;;;14.47;8.87;;;2.60;92.60;;;;;;4974059;28;20089;-75
2021/01/25 03:17:07;;;;;;;14.93;8.77;;;2.60;92.60;;;;;;4991985;28;20030;-75
2021/01/25 03:19:33;;;;;;;13.00;8.27;;;2.70;92.70;;;;;;4974472;28;20521;-75
2021/01/25 03:21:58;;;;;;;13.70;8.80;;;2.70;92.70;;;;;;4997916;28;20045;-76
2021/01/25 03:24:24;;;;;;;15.40;8.90;;;2.70;92.60;;;;;;5011306;28;20029;-74
2021/01/25 03:26:50;;;;;;;15.93;8.70;;;2.70;92.60;;;;;;5010816;28;20522;-74
2021/01/25 03:29:16;;;;;;;16.50;9.40;;;2.70;92.60;;;;;;5011271;28;20025;-74
2021/01/25 03:31:41;;;;;;;15.77;8.67;;;2.60;92.50;;;;;;5009845;28;20030;-75
2021/01/25 03:34:08;;;;;;;14.30;9.07;;;2.70;92.60;;;;;;4993499;28;20041;-75
2021/01/25 03:36:37;;;;;;;16.03;8.83;;;2.60;92.50;;;;;;5011013;28;20514;-76
2021/01/25 03:39:04;;;;;;;15.57;9.40;;;2.60;92.60;;;;;;4992987;28;20038;-75
2021/01/25 03:41:30;;;;;;;15.90;8.80;;;2.60;92.50;;;;;;5010196;28;20026;-76
2021/01/25 03:43:56;;;;;;;16.90;9.80;;;2.60;92.70;;;;;;5010274;28;20041;-76
2021/01/25 03:46:21;;;;;;;15.07;8.60;;;2.60;92.60;;;;;;4992147;28;20061;-74
2021/01/25 03:48:47;;;;;;;17.20;9.20;;;2.60;92.60;;;;;;4992817;28;20096;-76
2021/01/25 03:51:14;;;;;;;13.53;8.37;;;2.60;92.50;;;;;;5009168;28;20077;-75
2021/01/25 03:53:40;;;;;;;14.43;9.07;;;2.60;92.40;;;;;;5010217;28;20042;-75
2021/01/25 03:56:06;;;;;;;15.73;9.10;;;2.50;92.50;;;;;;5009994;28;20046;-74
2021/01/25 03:58:31;;;;;;;14.33;9.10;;;2.50;92.60;;;;;;5010111;28;20038;-74
2021/01/25 04:00:57;;;;;;;16.53;8.37;;;2.50;92.70;;;;;;4994430;28;20042;-75
2021/01/25 04:03:23;;;;;;;15.33;9.43;;;2.50;92.50;;;;;;5010296;28;20049;-76
2021/01/25 04:05:49;;;;;;;15.63;8.70;;;2.50;92.50;;;;;;4996630;28;20052;-76
2021/01/25 04:08:15;;;;;;;16.30;9.47;;;2.50;92.70;;;;;;5014376;28;20078;-76
2021/01/25 04:10:41;;;;;;;16.50;9.43;;;2.50;93.00;;;;;;5013107;28;20072;-76
2021/01/25 04:13:07;;;;;;;14.73;9.17;;;2.50;92.70;;;;;;5013813;28;20065;-75
2021/01/25 04:15:32;;;;;;;16.13;9.67;;;2.50;92.70;;;;;;5014179;28;20045;-75
2021/01/25 04:17:59;;;;;;;15.60;9.37;;;2.50;92.60;;;;;;4997048;28;20034;-76
2021/01/25 04:20:25;;;;;;;17.00;10.33;;;2.50;92.50;;;;;;5013903;28;20041;-76
2021/01/25 04:22:50;;;;;;;16.37;10.03;;;2.40;92.60;;;;;;4977665;28;20045;-75
2021/01/25 04:25:16;;;;;;;16.37;10.47;;;2.40;92.60;;;;;;4990483;28;20420;-75
2021/01/25 04:27:42;;;;;;;16.40;10.53;;;2.40;92.60;;;;;;4994347;28;20041;-75
2021/01/25 04:30:10;;;;;;;17.97;10.43;;;2.40;92.70;;;;;;4994312;28;20077;-75
2021/01/25 04:32:37;;;;;;;19.53;11.03;;;2.40;92.80;;;;;;5006665;28;20045;-76
2021/01/25 04:35:06;;;;;;;19.13;11.10;;;2.40;92.70;;;;;;4996113;28;20116;-75
2021/01/25 04:37:32;;;;;;;22.37;11.80;;;2.40;92.60;;;;;;5014138;28;20030;-77
2021/01/25 04:39:58;;;;;;;21.23;12.63;;;2.40;92.60;;;;;;5013797;28;20060;-76
2021/01/25 04:42:25;;;;;;;19.77;11.67;;;2.40;92.70;;;;;;5013191;28;20034;-76
2021/01/25 04:44:51;;;;;;;21.83;11.87;;;2.40;92.80;;;;;;4992846;28;20114;-76
2021/01/25 04:47:17;;;;;;;20.90;12.77;;;2.40;92.80;;;;;;4992953;28;20038;-76
2021/01/25 04:49:45;;;;;;;20.60;12.03;;;2.50;92.80;;;;;;4995887;28;20480;-77
2021/01/25 04:52:12;;;;;;;20.23;12.00;;;2.50;92.80;;;;;;4999906;28;20046;-74
2021/01/25 04:54:39;;;;;;;22.93;12.23;;;2.50;92.60;;;;;;4976993;28;20038;-75
2021/01/25 04:57:05;;;;;;;21.03;12.20;;;2.40;92.50;;;;;;4994431;28;20045;-76
2021/01/25 04:59:31;;;;;;;24.67;12.70;;;2.40;92.70;;;;;;4993873;28;20039;-75
2021/01/25 05:01:57;;;;;;;25.77;13.40;;;2.40;92.80;;;;;;4992933;28;20104;-76
2021/01/25 05:04:23;;;;;;;22.47;13.63;;;2.50;92.70;;;;;;4976212;28;20046;-74
2021/01/25 05:06:49;;;;;;;22.47;14.60;;;2.50;92.90;;;;;;4994122;28;20061;-76
2021/01/25 05:09:15;;;;;;;25.43;13.63;;;2.50;92.80;;;;;;4994245;28;20450;-76
2021/01/25 05:11:40;;;;;;;22.53;13.17;;;2.50;92.80;;;;;;4976308;28;20041;-75
2021/01/25 05:14:06;;;;;;;23.43;14.13;;;2.50;92.80;;;;;;4995048;28;20038;-76
2021/01/25 05:16:33;;;;;;;22.77;14.30;;;2.50;92.70;;;;;;5010067;28;20026;-76
2021/01/25 05:19:04;;;;;;;24.77;14.40;;;2.50;92.60;;;;;;4993571;28;20057;-76
2021/01/25 05:21:36;;;;;;;26.17;14.93;;;2.50;92.70;;;;;;4993105;28;20030;-76
2021/01/25 05:24:04;;;;;;;26.63;14.50;;;2.50;92.80;;;;;;4993077;28;20033;-76
2021/01/25 05:26:33;;;;;;;27.53;15.60;;;2.50;92.70;;;;;;4976171;28;20041;-76
2021/01/25 05:29:02;;;;;;;23.50;14.23;;;2.50;92.70;;;;;;4993215;28;20046;-74
2021/01/25 05:31:28;;;;;;;24.83;14.20;;;2.40;92.80;;;;;;4976074;28;20062;-76
2021/01/25 05:33:54;;;;;;;25.53;14.97;;;2.50;92.80;;;;;;4992950;28;20089;-76
2021/01/25 05:36:29;;;;;;;23.57;14.07;;;2.50;92.70;;;;;;4993469;28;20066;-76
2021/01/25 05:38:56;;;;;;;23.23;13.53;;;2.50;92.60;;;;;;4993180;28;20038;-75
2021/01/25 05:41:22;;;;;;;25.90;14.07;;;2.50;92.80;;;;;;4992268;28;20034;-76
2021/01/25 05:43:50;;;;;;;26.80;14.53;;;2.40;92.70;;;;;;4993360;28;20043;-74
2021/01/25 05:46:18;;;;;;;27.03;14.43;;;2.40;92.80;;;;;;4992990;28;20039;-76
2021/01/25 05:48:56;;;;;;;24.90;14.80;;;2.50;92.80;;;;;;4993317;28;20077;-76
2021/01/25 05:51:22;;;;;;;25.47;14.23;;;2.50;92.60;;;;;;4974750;28;20121;-75
2021/01/25 05:53:48;;;;;;;24.27;14.03;;;2.40;92.70;;;;;;4993299;28;20125;-75
2021/01/25 05:56:15;;;;;;;22.70;13.07;;;2.50;92.60;;;;;;4992847;28;20038;-75
2021/01/25 05:58:41;;;;;;;24.17;13.63;;;2.40;92.60;;;;;;4993213;28;20042;-75
2021/01/25 06:01:08;;;;;;;25.70;13.97;;;2.30;92.50;;;;;;4974976;28;20066;-76
2021/01/25 06:03:37;;;;;;;25.10;14.47;;;2.30;92.60;;;;;;4992772;28;20070;-76
2021/01/25 06:06:08;;;;;;;23.17;12.13;;;2.30;92.60;;;;;;4975187;28;20691;-75
2021/01/25 06:08:50;;;;;;;22.43;12.47;;;2.30;92.60;;;;;;4975317;28;20038;-75
2021/01/25 06:11:22;;;;;;;24.03;12.27;;;2.30;92.60;;;;;;4991716;28;20049;-66
2021/01/25 06:13:52;;;;;;;23.17;12.77;;;2.30;92.50;;;;;;4991830;28;20090;-66
2021/01/25 06:16:21;;;;;;;25.00;14.65;;;2.20;92.60;;;;;;4958546;28;20089;-65
2021/01/25 06:18:47;;;;;;;23.93;13.57;;;2.20;93.00;;;;;;4974752;28;20093;-66
2021/01/25 06:21:16;;;;;;;26.97;14.40;;;2.20;92.70;;;;;;4991929;28;20030;-66
2021/01/25 06:23:43;;;;;;;22.40;13.03;;;2.30;92.80;;;;;;4974491;28;20030;-66
2021/01/25 06:26:09;;;;;;;22.37;13.47;;;2.30;92.90;;;;;;4974988;28;20129;-66
2021/01/25 06:28:35;;;;;;;21.93;13.30;;;2.30;92.70;;;;;;4992325;28;20463;-66
2021/01/25 06:31:01;;;;;;;23.40;13.70;;;2.30;93.00;;;;;;4973801;28;20126;-65
2021/01/25 06:33:26;;;;;;;24.43;13.57;;;2.30;92.80;;;;;;4974526;28;20046;-65
2021/01/25 06:35:52;;;;;;;25.70;13.97;;;2.30;92.90;;;;;;4975103;28;20042;-65
2021/01/25 06:38:20;;;;;;;22.70;12.90;;;2.30;92.80;;;;;;4991783;28;20053;-66
2021/01/25 06:40:47;;;;;;;22.77;13.27;;;2.40;92.80;;;;;;4991370;28;20053;-66
2021/01/25 06:43:15;;;;;;;22.90;13.37;;;2.40;92.90;;;;;;4973628;28;20042;-67
2021/01/25 06:45:45;;;;;;;25.10;13.63;;;2.40;92.70;;;;;;4992160;28;20049;-66
2021/01/25 06:48:20;;;;;;;25.50;14.40;;;2.40;92.70;;;;;;4991731;28;20046;-66
2021/01/25 06:50:48;;;;;;;26.00;13.63;;;2.40;92.70;;;;;;4991429;28;20042;-66
2021/01/25 06:53:15;;;;;;;26.20;13.73;;;2.40;92.80;;;;;;4999072;28;20034;-65
2021/01/25 06:55:43;;;;;;;23.40;12.83;;;2.40;92.80;;;;;;5010129;28;20116;-66
2021/01/25 06:58:11;;;;;;;24.83;12.93;;;2.40;92.70;;;;;;5009291;28;20482;-66
2021/01/25 07:00:38;;;;;;;23.93;12.83;;;2.40;92.50;;;;;;5002090;28;20467;-67
2021/01/25 07:03:05;;;;;;;23.50;13.33;;;2.40;92.50;;;;;;5000593;28;20119;-66
2021/01/25 07:05:38;;;;;;;25.93;13.20;;;2.30;92.60;;;;;;5002011;28;20510;-67
2021/01/25 07:08:26;;;;;;;23.37;13.70;;;2.30;92.70;;;;;;4995775;28;20050;-65
2021/01/25 07:11:01;;;;;;;23.93;14.30;;;2.30;92.70;;;;;;4997727;28;20495;-66
2021/01/25 07:13:35;;;;;;;24.60;13.97;;;2.30;93.10;;;;;;4985762;28;20120;-67
2021/01/25 07:16:02;;;;;;;21.93;13.17;;;2.30;92.70;;;;;;5000429;28;20044;-66
2021/01/25 07:18:29;;;;;;;23.40;12.80;;;2.30;92.80;;;;;;4990182;28;20553;-65
2021/01/25 07:21:00;;;;;;;24.93;13.50;;;2.30;92.80;;;;;;4990405;28;20077;-66
2021/01/25 07:23:30;;;;;;;24.40;13.55;;;2.30;93.00;;;;;;4991785;28;20451;-65
2021/01/25 07:26:01;;;;;;;22.48;11.82;;;2.30;92.80;;;;;;4982972;28;20049;-66
2021/01/25 07:28:30;;;;;;;21.25;11.32;;;2.30;92.60;;;;;;4974446;28;20038;-66
2021/01/25 07:30:56;;;;;;;24.17;13.13;;;2.20;92.70;;;;;;4990267;28;20037;-67
2021/01/25 07:33:23;;;;;;;24.90;14.23;;;2.20;92.70;;;;;;4991440;28;20046;-66
2021/01/25 07:35:50;;;;;;;24.97;14.03;;;2.20;92.90;;;;;;4991155;28;20438;-66
2021/01/25 07:38:16;;;;;;;28.03;15.20;;;2.20;92.90;;;;;;4991158;28;20042;-64
2021/01/25 07:40:47;;;;;;;26.13;14.50;;;2.30;93.00;;;;;;4990108;28;20045;-65
2021/01/25 07:43:17;;;;;;;24.80;13.70;;;2.30;93.00;;;;;;4992092;28;20038;-67
2021/01/25 07:45:44;;;;;;;23.27;13.27;;;2.30;92.80;;;;;;5002389;28;20050;-65
2021/01/25 07:48:11;;;;;;;24.23;13.83;;;2.30;92.70;;;;;;4992803;28;20041;-65
2021/01/25 07:50:37;;;;;;;23.50;13.60;;;2.30;92.60;;;;;;5009637;28;20120;-67
2021/01/25 07:53:05;;;;;;;26.70;14.10;;;2.30;92.80;;;;;;4993251;28;20041;-67
2021/01/25 07:55:31;;;;;;;25.80;14.27;;;2.30;92.90;;;;;;5010504;28;20142;-65
2021/01/25 07:58:10;;;;;;;27.00;15.17;;;2.30;92.90;;;;;;4989318;28;20039;-66
2021/01/25 08:00:40;;;;;;;23.93;13.00;;;2.30;92.90;;;;;;4990079;28;20089;-66
2021/01/25 08:03:24;;;;;;;23.70;13.50;;;2.40;93.00;;;;;;5006715;28;20040;-66
2021/01/25 08:05:53;;;;;;;24.60;13.17;;;2.40;92.80;;;;;;5004016;28;20077;-66
2021/01/25 08:08:21;;;;;;;24.73;12.87;;;2.40;92.70;;;;;;5002129;28;20061;-65
2021/01/25 08:10:48;;;;;;;24.43;12.90;;;2.30;92.30;;;;;;5008562;28;20049;-66
2021/01/25 08:13:17;;;;;;;23.37;13.63;;;2.20;92.40;;;;;;5009015;28;20046;-65
2021/01/25 08:16:04;;;;;;;24.53;13.40;;;2.20;92.60;;;;;;4987540;28;20153;-67
2021/01/25 08:18:50;;;;;;;22.77;13.37;;;2.10;92.80;;;;;;5003325;28;20038;-66
2021/01/25 08:21:24;;;;;;;22.70;12.90;;;2.10;92.90;;;;;;4990524;28;20045;-67
2021/01/25 08:23:53;;;;;;;24.63;13.93;;;2.20;92.90;;;;;;5008146;28;20065;-65
2021/01/25 08:26:28;;;;;;;26.97;13.90;;;2.20;93.00;;;;;;5004628;28;20049;-66
2021/01/25 08:28:58;;;;;;;26.33;13.93;;;2.20;92.80;;;;;;5003460;28;20497;-66
2021/01/25 08:31:40;;;;;;;30.38;12.73;;;2.20;92.70;;;;;;5007640;28;20038;-67
2021/01/25 08:34:25;;;;;;;25.67;13.33;;;2.30;92.80;;;;;;5003338;28;20052;-66
2021/01/25 08:37:08;;;;;;;25.23;13.10;;;2.20;92.60;;;;;;5003432;28;20044;-65
2021/01/25 08:39:38;;;;;;;23.97;12.23;;;2.20;92.80;;;;;;5007341;28;20514;-67
2021/01/25 08:42:12;;;;;;;27.97;13.37;;;2.20;92.90;;;;;;4974191;28;20050;-66
2021/01/25 08:44:54;;;;;;;24.40;12.37;;;2.20;92.70;;;;;;4990441;28;20494;-67
2021/01/25 08:47:29;;;;;;;24.10;13.03;;;2.20;92.40;;;;;;5008517;28;20065;-66
2021/01/25 08:49:55;;;;;;;21.50;11.60;;;2.20;93.00;;;;;;4992591;28;20046;-67
2021/01/25 08:52:39;;;;;;;25.83;12.17;;;2.30;93.00;;;;;;5005908;28;20038;-67
2021/01/25 08:55:12;;;;;;;24.40;11.80;;;2.20;92.50;;;;;;4984927;28;20081;-66
2021/01/25 08:57:42;;;;;;;23.27;11.23;;;2.20;92.70;;;;;;4988278;28;20128;-66
2021/01/25 09:00:15;;;;;;;22.10;11.97;;;2.30;92.90;;;;;;5008639;28;20503;-66
2021/01/25 09:02:42;;;;;;;22.37;11.97;;;2.30;93.00;;;;;;4993492;28;20652;-66
2021/01/25 09:05:10;;;;;;;24.63;12.43;;;2.40;93.10;;;;;;5006465;28;20046;-66
2021/01/25 09:07:36;;;;;;;25.93;13.13;;;2.40;93.10;;;;;;4993140;28;20045;-67
2021/01/25 09:10:03;;;;;;;25.17;12.83;;;2.50;93.00;;;;;;5001216;28;20372;-67
2021/01/25 09:12:29;;;;;;;29.17;13.77;;;2.50;92.80;;;;;;5008472;28;20038;-66
2021/01/25 09:14:55;;;;;;;25.10;13.73;;;2.50;92.80;;;;;;5005240;28;20038;-66
2021/01/25 09:17:24;;;;;;;26.97;14.33;;;2.60;92.70;;;;;;5010953;28;20494;-66
2021/01/25 09:19:51;;;;;;;28.47;14.10;;;2.50;92.70;;;;;;5006071;28;20388;-67
2021/01/25 09:22:18;;;;;;;25.77;13.03;;;2.60;92.70;;;;;;4975108;28;20529;-67
2021/01/25 09:24:44;;;;;;;22.17;11.40;;;2.60;92.70;;;;;;5011243;28;20425;-66
2021/01/25 09:27:11;;;;;;;22.37;10.63;;;2.60;92.50;;;;;;5006455;28;20034;-66
2021/01/25 09:29:37;;;;;;;21.10;10.43;;;2.60;92.50;;;;;;5011529;28;20065;-67
2021/01/25 09:32:05;;;;;;;19.93;10.93;;;2.60;92.60;;;;;;5005634;28;20033;-66
2021/01/25 09:34:31;;;;;;;18.77;10.20;;;2.60;92.80;;;;;;5006165;28;20045;-67
2021/01/25 09:36:57;;;;;;;20.33;10.33;;;2.70;93.00;;;;;;5011722;28;20053;-66
2021/01/25 09:39:23;;;;;;;19.00;9.83;;;2.80;92.80;;;;;;5006419;28;20064;-67
2021/01/25 09:41:50;;;;;;;20.47;10.50;;;2.80;92.40;;;;;;5010405;28;20136;-66
2021/01/25 09:44:17;;;;;;;19.53;10.10;;;2.70;92.00;;;;;;5007356;28;20066;-67
2021/01/25 09:46:43;;;;;;;21.40;10.70;;;2.60;92.20;;;;;;5009866;28;20042;-67
2021/01/25 09:49:10;;;;;;;19.43;10.43;;;2.50;92.10;;;;;;5006182;28;20457;-65
2021/01/25 09:51:36;;;;;;;18.80;9.40;;;2.40;92.30;;;;;;5010788;28;20092;-65
2021/01/25 09:54:03;;;;;;;16.03;8.53;;;2.40;92.60;;;;;;5005719;28;20450;-65
2021/01/25 09:56:29;;;;;;;16.00;8.40;;;2.50;92.70;;;;;;4985403;28;20050;-67
2021/01/25 09:58:55;;;;;;;16.77;8.20;;;2.50;92.60;;;;;;5000505;28;20053;-67
2021/01/25 10:01:22;;;;;;;16.03;9.07;;;2.50;92.50;;;;;;5005082;28;20287;-67
2021/01/25 10:03:48;;;;;;;15.67;8.20;;;2.50;92.40;;;;;;5010579;28;20040;-67
2021/01/25 10:06:14;;;;;;;20.97;10.00;;;2.50;92.10;;;;;;5006002;28;20049;-67
2021/01/25 10:08:40;;;;;;;19.30;9.77;;;2.40;92.10;;;;;;5005832;28;20037;-67
2021/01/25 10:11:07;;;;;;;20.00;10.83;;;2.40;92.40;;;;;;5001237;28;20045;-68
2021/01/25 10:13:33;;;;;;;22.00;10.43;;;2.40;92.50;;;;;;5005971;28;20030;-66
2021/01/25 10:16:00;;;;;;;21.97;11.23;;;2.50;92.70;;;;;;5009816;28;20038;-67
2021/01/25 10:18:26;;;;;;;22.23;11.60;;;2.50;92.80;;;;;;5008442;28;20498;-66
2021/01/25 10:20:52;;;;;;;23.00;11.23;;;2.60;92.80;;;;;;5005983;28;20453;-68
2021/01/25 10:23:18;;;;;;;21.47;12.07;;;2.70;92.60;;;;;;5011386;28;20095;-67
2021/01/25 10:25:44;;;;;;;20.73;10.97;;;2.70;92.60;;;;;;5006502;28;20541;-67
2021/01/25 10:28:10;;;;;;;18.63;9.40;;;2.80;92.60;;;;;;5011621;28;20046;-66
2021/01/25 10:30:35;;;;;;;19.10;9.90;;;2.90;92.60;;;;;;4987978;28;20035;-67
2021/01/25 10:33:02;;;;;;;17.37;8.93;;;3.00;92.60;;;;;;4990554;28;20495;-67
2021/01/25 10:35:29;;;;;;;16.87;9.57;;;3.00;92.60;;;;;;4998177;28;20033;-66
2021/01/25 10:37:55;;;;;;;18.27;10.03;;;3.10;92.50;;;;;;4992185;28;20113;-67
2021/01/25 10:40:21;;;;;;;22.30;11.20;;;3.10;92.20;;;;;;5007308;28;20109;-67
2021/01/25 10:42:48;;;;;;;20.37;10.83;;;3.10;92.30;;;;;;4989752;28;20181;-65
2021/01/25 10:45:14;;;;;;;20.77;11.53;;;3.10;92.20;;;;;;5003939;28;20122;-66
2021/01/25 10:47:41;;;;;;;22.47;11.87;;;3.10;92.10;;;;;;5005725;28;20026;-67
2021/01/25 10:50:11;;;;;;;20.73;11.70;;;3.20;92.40;;;;;;5032831;23;20041;-67
2021/01/25 10:52:37;;;;;;;23.30;12.23;;;3.30;92.60;;;;;;5031200;28;20033;-66
2021/01/25 10:55:04;;;;;;;23.67;12.10;;;3.30;92.30;;;;;;5029203;28;20378;-66
2021/01/25 10:57:33;;;;;;;21.37;11.53;;;3.40;92.30;;;;;;5031184;28;20034;-66
2021/01/25 11:00:10;;;;;;;21.50;12.33;;;3.40;92.10;;;;;;5012457;28;20057;-66
2021/01/25 11:02:35;;;;;;;21.27;11.57;;;3.50;91.90;;;;;;5023990;28;20033;-67
2021/01/25 11:05:03;;;;;;;21.20;11.87;;;3.40;91.50;;;;;;5013561;28;20038;-67
2021/01/25 11:07:30;;;;;;;20.47;11.03;;;3.40;92.30;;;;;;5016663;28;20045;-66
2021/01/25 11:09:56;;;;;;;19.60;10.97;;;3.50;92.50;;;;;;5021113;28;20125;-66
2021/01/25 11:12:22;;;;;;;20.63;10.30;;;3.60;92.50;;;;;;5014393;28;20025;-66
2021/01/25 11:14:47;;;;;;;19.00;10.13;;;3.70;91.90;;;;;;5020968;28;20034;-65
2021/01/25 11:17:13;;;;;;;16.63;8.27;;;3.70;91.80;;;;;;5017093;28;20038;-66
2021/01/25 11:19:39;;;;;;;13.20;7.10;;;3.70;91.90;;;;;;5013750;28;20036;-66
2021/01/25 11:22:05;;;;;;;14.07;7.07;;;3.70;91.40;;;;;;4997814;28;20118;-65
2021/01/25 11:24:31;;;;;;;14.27;7.80;;;3.70;91.90;;;;;;5011782;28;20034;-66
2021/01/25 11:26:59;;;;;;;15.63;8.13;;;3.70;92.10;;;;;;5020616;28;20141;-65
2021/01/25 11:29:28;;;;;;;14.33;7.60;;;3.80;92.00;;;;;;5019609;28;20405;-66
2021/01/25 11:31:57;;;;;;;14.90;7.63;;;3.90;91.80;;;;;;5012307;28;20033;-66
2021/01/25 11:34:23;;;;;;;15.00;7.53;;;3.90;91.70;;;;;;5025518;28;20073;-66
2021/01/25 11:36:50;;;;;;;19.07;7.30;;;4.00;91.80;;;;;;5025980;28;20057;-67
2021/01/25 11:39:15;;;;;;;14.63;7.43;;;4.00;91.60;;;;;;5030414;28;20095;-67
2021/01/25 11:41:41;;;;;;;13.47;7.27;;;4.10;91.50;;;;;;5013453;28;20029;-66
2021/01/25 11:44:07;;;;;;;15.57;7.87;;;4.10;91.40;;;;;;5021609;28;20038;-66
2021/01/25 11:46:33;;;;;;;14.87;7.80;;;4.10;91.30;;;;;;5016215;28;20452;-66
2021/01/25 11:48:58;;;;;;;13.87;7.33;;;4.00;91.00;;;;;;5017636;28;20571;-66
2021/01/25 11:51:24;;;;;;;13.47;7.53;;;3.90;90.40;;;;;;5017695;28;20045;-66
2021/01/25 11:53:50;;;;;;;13.50;6.97;;;3.70;90.40;;;;;;5012103;28;20037;-67
2021/01/25 11:56:17;;;;;;;12.17;6.30;;;3.60;90.60;;;;;;5020991;28;20111;-66
2021/01/25 11:58:43;;;;;;;14.00;6.77;;;3.50;91.20;;;;;;5012421;28;20034;-66
2021/01/25 12:01:12;;;;;;;10.93;5.67;;;3.60;91.10;;;;;;5029489;28;20108;-66
2021/01/25 12:03:38;;;;;;;9.40;5.30;;;3.60;91.10;;;;;;5030379;28;20033;-65
2021/01/25 12:06:04;;;;;;;10.87;6.10;;;3.60;91.00;;;;;;5029943;28;20045;-66
2021/01/25 12:08:29;;;;;;;11.20;5.80;;;3.60;91.30;;;;;;5030480;28;20041;-67
2021/01/25 12:10:55;;;;;;;12.27;6.10;;;3.70;91.30;;;;;;5030004;28;20099;-66
2021/01/25 12:13:21;;;;;;;12.60;6.90;;;3.70;90.80;;;;;;5030026;28;20088;-67
2021/01/25 12:15:47;;;;;;;15.60;8.07;;;3.70;90.80;;;;;;5029069;28;20037;-66
2021/01/25 12:18:13;;;;;;;15.10;8.73;;;3.70;91.00;;;;;;5029621;28;20107;-67
2021/01/25 12:20:39;;;;;;;15.97;9.10;;;3.70;90.70;;;;;;5029418;28;20044;-65
2021/01/25 12:23:05;;;;;;;16.10;8.93;;;3.70;90.90;;;;;;5033923;28;20044;-67
2021/01/25 12:25:33;;;;;;;13.57;8.17;;;3.80;91.10;;;;;;5033055;28;20128;-65
2021/01/25 12:27:59;;;;;;;15.07;8.27;;;3.80;90.60;;;;;;5033783;28;20045;-67
2021/01/25 12:30:25;;;;;;;16.57;8.67;;;3.80;90.70;;;;;;5031529;28;20489;-66
2021/01/25 12:32:51;;;;;;;16.37;9.00;;;3.80;90.90;;;;;;5033374;28;20087;-65
2021/01/25 12:35:17;;;;;;;19.80;10.80;;;3.90;90.90;;;;;;5020675;28;20505;-66
2021/01/25 12:37:44;;;;;;;15.90;9.70;;;3.80;90.30;;;;;;5011186;28;20050;-67
2021/01/25 12:40:11;;;;;;;18.13;9.97;;;3.80;90.70;;;;;;5007009;28;20033;-66
2021/01/25 12:42:37;;;;;;;15.17;8.90;;;3.80;90.90;;;;;;5012298;28;20053;-66